createdAt,value
2019-04-22T00:03:37.757Z,3.16
2019-04-22T00:07:41.989Z,3.19
2019-04-22T00:12:01.292Z,3.85
2019-04-22T00:16:07.342Z,3.01
2019-04-22T00:23:57.844Z,3.65
2019-04-22T00:28:08.703Z,3.92
2019-04-22T00:32:11.608Z,4.03
2019-04-22T00:36:17.843Z,3.99
2019-04-22T00:40:30.967Z,3.94
2019-04-22T00:44:41.537Z,3.49
2019-04-22T00:49:09.575Z,4.06
2019-04-22T00:53:48.186Z,3.45
2019-04-22T00:57:46.499Z,3.5
2019-04-22T01:00:44.442Z,4.05
2019-04-22T01:04:46.515Z,3.49
2019-04-22T01:09:07.696Z,3.95
2019-04-22T01:13:15.855Z,3.71
2019-04-22T01:17:27.704Z,3.66
2019-04-22T01:25:08.778Z,3.4
2019-04-22T01:29:05.404Z,3.84
2019-04-22T01:32:45.693Z,4.47
2019-04-22T01:44:09.780Z,3.88
2019-04-22T01:48:12.909Z,4.41
2019-04-22T01:55:57.394Z,3.66
2019-04-22T02:00:01.057Z,3.65
2019-04-22T02:07:51.647Z,3.79
2019-04-22T02:12:17.698Z,4.69
2019-04-22T02:16:19.902Z,3.95
2019-04-22T02:20:25.320Z,4.79
2019-04-22T02:24:33.291Z,3.34
2019-04-22T02:32:38.890Z,3.9
2019-04-22T02:36:53.399Z,5.06
2019-04-22T02:44:44.786Z,4.51
2019-04-22T02:52:47.298Z,4.4
2019-04-22T02:56:56.510Z,5.72
2019-04-22T03:00:40.213Z,6.33
2019-04-22T03:05:07.499Z,5.41
2019-04-22T03:09:18.084Z,5.35
2019-04-22T03:17:10.287Z,5.93
2019-04-22T03:21:17.577Z,5.86
2019-04-22T03:26:04.673Z,6.41
2019-04-22T03:30:51.157Z,4.99
2019-04-22T03:35:37.072Z,5.12
2019-04-22T03:43:35.188Z,5.74
2019-04-22T03:47:59.631Z,6.31
2019-04-22T03:52:16.167Z,5.59
2019-04-22T04:00:08.407Z,5.96
2019-04-22T04:04:37.201Z,6.58
2019-04-22T04:08:33.480Z,7.36
2019-04-22T04:12:56.548Z,8.29
2019-04-22T04:17:20.804Z,7.66
2019-04-22T04:21:41.253Z,6.74
2019-04-22T04:25:46.595Z,6.99
2019-04-22T04:30:13.838Z,6.89
2019-04-22T04:38:11.708Z,8.62
2019-04-22T04:46:06.455Z,9.04
2019-04-22T04:50:39.976Z,8.7
2019-04-22T04:54:56.978Z,9.15
2019-04-22T04:59:30.343Z,10.07
2019-04-22T05:01:07.301Z,10.09
2019-04-22T05:05:31.505Z,8.41
2019-04-22T05:09:41.152Z,7.92
2019-04-22T05:13:55.011Z,7.17
2019-04-22T05:25:25.235Z,8.78
2019-04-22T05:29:55.440Z,9.14
2019-04-22T05:33:56.704Z,8.1
2019-04-22T05:38:04.463Z,6.65
2019-04-22T05:42:17.892Z,8.36
2019-04-22T05:46:22.379Z,6.42
2019-04-22T05:50:13.051Z,6.32
2019-04-22T05:54:16.050Z,6.99
2019-04-22T05:58:34.491Z,8.2
2019-04-22T06:02:40.070Z,7
2019-04-22T06:06:43.005Z,5.69
2019-04-22T06:14:25.899Z,5.2
2019-04-22T06:18:27.182Z,6.3
2019-04-22T06:26:26.605Z,6.04
2019-04-22T06:30:41.473Z,4.25
2019-04-22T06:35:03.534Z,6.8
2019-04-22T06:49:55.472Z,4.86
2019-04-22T06:57:37.834Z,4.25
2019-04-22T07:00:43.424Z,3.98
2019-04-22T07:04:51.958Z,4.54
2019-04-22T07:09:20.713Z,4.8
2019-04-22T07:13:35.932Z,4.25
2019-04-22T07:17:56.843Z,3.25
2019-04-22T07:21:57.544Z,3.54
2019-04-22T07:25:45.213Z,4
2019-04-22T07:29:57.084Z,4.03
2019-04-22T07:34:16.059Z,3.85
2019-04-22T07:41:59.130Z,3.5
2019-04-22T07:49:47.182Z,5.2
2019-04-22T07:53:57.388Z,3.69
2019-04-22T07:57:59.393Z,3.41
2019-04-22T08:05:52.224Z,4.22
2019-04-22T08:13:38.839Z,2.38
2019-04-22T08:17:55.119Z,3.69
2019-04-22T08:22:12.241Z,3.6
2019-04-22T08:26:12.996Z,3.81
2019-04-22T08:30:29.029Z,4.14
2019-04-22T08:34:24.585Z,2.67
2019-04-22T08:38:37.793Z,3.48
2019-04-22T08:42:53.426Z,3.27
2019-04-22T08:50:48.914Z,2.91
2019-04-22T08:55:01.785Z,2.45
2019-04-22T09:00:37.541Z,2.99
2019-04-22T09:04:44.648Z,3.06
2019-04-22T09:12:26.496Z,3.05
2019-04-22T09:16:39.845Z,3.16
2019-04-22T09:28:00.769Z,3.19
2019-04-22T09:32:05.543Z,2.25
2019-04-22T09:36:12.794Z,2.97
2019-04-22T09:40:21.712Z,2.81
2019-04-22T09:44:28.803Z,3.4
2019-04-22T09:52:10.502Z,3.41
2019-04-22T09:59:57.492Z,3
2019-04-22T10:08:22.248Z,2.84
2019-04-22T10:12:36.722Z,3.35
2019-04-22T10:16:45.566Z,3.8
2019-04-22T10:20:38.163Z,3.5
2019-04-22T10:24:43.261Z,3.12
2019-04-22T10:28:44.597Z,3.06
2019-04-22T10:32:59.437Z,2.49
2019-04-22T10:36:50.981Z,3.49
2019-04-22T10:40:29.478Z,3.7
2019-04-22T10:43:59.613Z,2.77
2019-04-22T10:47:29.841Z,3.05
2019-04-22T10:51:00.980Z,2.8
2019-04-22T10:54:31.478Z,2.95
2019-04-22T10:58:02.299Z,3.86
2019-04-22T11:00:17.647Z,2.81
2019-04-22T11:03:49.104Z,11.96
2019-04-22T11:07:24.575Z,4.66
2019-04-22T11:11:16.256Z,3.56
2019-04-22T11:14:58.092Z,2.17
2019-04-22T11:18:29.607Z,2.6
2019-04-22T11:22:07.727Z,1.92
2019-04-22T11:25:46.064Z,3.39
2019-04-22T11:29:17.404Z,2.66
2019-04-22T11:32:48.691Z,2.99
2019-04-22T11:36:19.907Z,2.57
2019-04-22T11:40:04.378Z,2.74
2019-04-22T11:43:36.967Z,2.62
2019-04-22T11:47:07.573Z,2.59
2019-04-22T11:50:37.868Z,2.21
2019-04-22T11:54:07.921Z,2.99
2019-04-22T11:57:39.211Z,3.26
2019-04-22T12:01:10.837Z,2.42
2019-04-22T12:04:41.108Z,1.45
2019-04-22T12:08:11.397Z,2.92
2019-04-22T12:11:41.528Z,5.4
2019-04-22T12:15:12.803Z,2.25
2019-04-22T12:18:43.120Z,2.44
2019-04-22T12:22:13.345Z,1.97
2019-04-22T12:25:53.569Z,3.05
2019-04-22T12:29:28.964Z,2.25
2019-04-22T12:33:00.158Z,2.66
2019-04-22T12:36:30.709Z,3.24
2019-04-22T12:40:02.528Z,2.94
2019-04-22T12:43:33.638Z,2.81
2019-04-22T12:47:05.381Z,2.49
2019-04-22T12:50:40.368Z,2.04
2019-04-22T12:54:15.112Z,2.04
2019-04-22T12:57:46.331Z,2.21
2019-04-22T13:00:17.905Z,2.36
2019-04-22T13:03:47.949Z,3.1
2019-04-22T13:07:17.987Z,2.76
2019-04-22T13:10:53.666Z,2.69
2019-04-22T13:14:30.536Z,3.99
2019-04-22T13:18:10.630Z,2.92
2019-04-22T13:21:46.770Z,3.61
2019-04-22T13:25:17.691Z,2.05
2019-04-22T13:28:48.958Z,2.54
2019-04-22T13:32:20.607Z,3.33
2019-04-22T13:35:52.145Z,4.28
2019-04-22T13:39:22.874Z,2.8
2019-04-22T13:42:53.528Z,3.55
2019-04-22T13:46:24.084Z,4.01
2019-04-22T13:50:28.226Z,6.11
2019-04-22T13:54:48.881Z,3.3
2019-04-22T13:58:45.878Z,6.61
2019-04-22T14:02:50.626Z,4.59
2019-04-22T14:06:20.869Z,2.21
2019-04-22T14:09:50.943Z,3.94
2019-04-22T14:13:21.686Z,3.24
2019-04-22T14:16:53.124Z,5.81
2019-04-22T14:20:26.979Z,3.56
2019-04-22T14:24:00.392Z,3.24
2019-04-22T14:27:41.400Z,6.1
2019-04-22T14:31:18.584Z,4.56
2019-04-22T14:34:49.082Z,3.98
2019-04-22T14:38:19.222Z,4.78
2019-04-22T14:46:01.671Z,2.89
2019-04-22T14:53:40.474Z,3.2
2019-04-22T14:57:21.372Z,4.86
2019-04-22T15:00:20.002Z,3.95
2019-04-22T15:03:50.416Z,3.75
2019-04-22T15:07:21.089Z,3.91
2019-04-22T15:10:51.704Z,3.24
2019-04-22T15:14:23.264Z,3.02
2019-04-22T15:17:58.916Z,4.05
2019-04-22T15:21:30.046Z,3.81
2019-04-22T15:25:00.748Z,5.68
2019-04-22T15:28:31.464Z,2.59
2019-04-22T15:32:03.012Z,4.75
2019-04-22T15:35:33.664Z,2.64
2019-04-22T15:39:05.452Z,3.39
2019-04-22T15:42:39.580Z,3.52
2019-04-22T15:46:11.990Z,3.97
2019-04-22T15:49:42.306Z,3.62
2019-04-22T15:53:13.815Z,6.83
2019-04-22T15:56:44.448Z,7.17
2019-04-22T16:00:25.169Z,5.58
2019-04-22T16:04:00.626Z,7.65
2019-04-22T16:07:31.856Z,5.24
2019-04-22T16:11:02.152Z,8.73
2019-04-22T16:14:39.395Z,8.85
2019-04-22T16:18:15.137Z,5.3
2019-04-22T16:21:55.319Z,5.4
2019-04-22T16:25:45.301Z,10.72
2019-04-22T16:29:15.947Z,7.51
2019-04-22T16:32:47.491Z,7.45
2019-04-22T16:36:18.616Z,6.6
2019-04-22T16:39:50.357Z,7.72
2019-04-22T16:43:22.562Z,5.16
2019-04-22T16:46:52.814Z,6.45
2019-04-22T16:50:23.134Z,6.59
2019-04-22T16:53:53.956Z,9.9
2019-04-22T16:57:26.027Z,4.36
2019-04-22T17:00:18.470Z,7.64
2019-04-22T17:06:14.548Z,3.33
2019-04-22T17:09:45.790Z,1.69
2019-04-22T17:13:20.916Z,1.81
2019-04-22T17:16:54.756Z,2.21
2019-04-22T17:20:25.165Z,2.24
2019-04-22T17:23:56.176Z,2.12
2019-04-22T17:27:26.608Z,2.04
2019-04-22T17:30:57.525Z,2.3
2019-04-22T17:34:27.818Z,1.55
2019-04-22T17:38:08.888Z,1.86
2019-04-22T17:42:01.955Z,2.4
2019-04-22T17:46:51.013Z,2.49
2019-04-22T17:50:53.903Z,2.05
2019-04-22T17:54:51.543Z,2.09
2019-04-22T17:59:00.388Z,1.79
2019-04-22T18:03:01.814Z,2.49
2019-04-22T18:06:55.014Z,1.86
2019-04-22T18:10:56.074Z,1.76
2019-04-22T18:15:07.127Z,2.19
2019-04-22T18:19:00.265Z,2.25
2019-04-22T18:22:54.317Z,2.17
2019-04-22T18:30:20.445Z,1.9
2019-04-22T18:34:10.134Z,2.39
2019-04-22T18:38:20.689Z,2.15
2019-04-22T18:46:11.301Z,1.87
2019-04-22T18:50:24.698Z,2.12
2019-04-22T18:58:20.695Z,1.89
2019-04-22T19:00:36.341Z,2.22
2019-04-22T19:04:13.226Z,2.33
2019-04-22T19:08:07.703Z,1.93
2019-04-22T19:16:09.838Z,2.46
2019-04-22T19:23:54.326Z,2.29
2019-04-22T19:28:11.571Z,2.21
2019-04-22T19:32:23.103Z,2.19
2019-04-22T19:36:25.628Z,2.24
2019-04-22T19:40:52.908Z,2.2
2019-04-22T19:44:50.783Z,2.67
2019-04-22T19:52:24.540Z,2.62
2019-04-22T19:56:11.555Z,2.62
2019-04-22T20:00:17.980Z,2.34
2019-04-22T20:04:28.175Z,2.04
2019-04-22T20:08:30.223Z,2.44
2019-04-22T20:12:33.261Z,2.42
2019-04-22T20:16:27.219Z,1.8
2019-04-22T20:20:27.363Z,2.5
2019-04-22T20:24:06.673Z,2.16
2019-04-22T20:28:01.403Z,1.99
2019-04-22T20:32:05.718Z,2.12
2019-04-22T20:36:26.407Z,2.15
2019-04-22T20:40:31.884Z,2.29
2019-04-22T20:44:33.508Z,1.86
2019-04-22T20:48:37.568Z,2.54
2019-04-22T20:52:50.429Z,2.29
2019-04-22T20:56:49.180Z,2.59
2019-04-22T21:00:31.154Z,2.64
2019-04-22T21:04:18.224Z,2.26
2019-04-22T21:08:11.424Z,1.81
2019-04-22T21:12:05.036Z,1.89
2019-04-22T21:16:12.258Z,2.08
2019-04-22T21:20:13.587Z,2.51
2019-04-22T21:24:13.964Z,1.93
2019-04-22T21:28:15.818Z,2.6
2019-04-22T21:32:23.982Z,2.3
2019-04-22T21:36:25.423Z,2.35
2019-04-22T21:40:30.144Z,2.41
2019-04-22T21:44:29.637Z,1.8
2019-04-22T21:52:13.942Z,1.9
2019-04-22T22:00:09.696Z,3.95
2019-04-22T22:04:22.014Z,3.62
2019-04-22T22:08:30.113Z,2.52
2019-04-22T22:12:36.154Z,2.01
2019-04-22T22:16:32.773Z,2.26
2019-04-22T22:20:43.590Z,2.26
2019-04-22T22:24:57.146Z,2.49
2019-04-22T22:29:05.321Z,2.61
2019-04-22T22:40:07.187Z,2.28
2019-04-22T22:43:46.721Z,2.09
2019-04-22T22:47:42.225Z,1.88
2019-04-22T22:51:39.634Z,2.56
2019-04-22T22:55:44.879Z,2.1
2019-04-22T22:59:43.065Z,2.21
2019-04-22T23:00:36.961Z,2.72
2019-04-22T23:04:37.137Z,2.54
2019-04-22T23:08:36.262Z,3
2019-04-22T23:16:10.038Z,3.14
2019-04-22T23:19:52.104Z,2.29
2019-04-22T23:23:37.878Z,2.55
2019-04-22T23:27:44.502Z,2.12
2019-04-22T23:31:44.272Z,2.55
2019-04-22T23:35:42.496Z,2.46
2019-04-22T23:39:41.527Z,2.55
2019-04-22T23:43:38.688Z,2.64
2019-04-22T23:47:35.031Z,2.85
2019-04-22T23:51:25.372Z,2.04
2019-04-22T23:55:31.504Z,2.28
2019-04-22T23:59:38.593Z,2.8
